createdAt,value
2019-04-11T00:00:41.750Z,50.67
2019-04-11T00:03:11.319Z,50.83
2019-04-11T00:05:39.775Z,50.68
2019-04-11T00:08:08.239Z,50.74
2019-04-11T00:10:37.481Z,50.59
2019-04-11T00:13:17.316Z,50.61
2019-04-11T00:15:37.057Z,50.80
2019-04-11T00:18:06.165Z,50.73
2019-04-11T00:20:34.575Z,50.99
2019-04-11T00:23:02.967Z,51.07
2019-04-11T00:25:31.680Z,50.71
2019-04-11T00:28:01.489Z,50.99
2019-04-11T00:30:30.380Z,50.77
2019-04-11T00:33:00.084Z,50.84
2019-04-11T00:35:28.604Z,51.01
2019-04-11T00:37:57.186Z,51.08
2019-04-11T00:40:25.602Z,51.18
2019-04-11T00:42:54.732Z,51.26
2019-04-11T00:45:23.350Z,51.22
2019-04-11T00:47:51.718Z,51.40
2019-04-11T00:50:21.208Z,51.35
2019-04-11T00:52:49.688Z,51.47
2019-04-11T00:55:18.082Z,51.55
2019-04-11T00:57:47.384Z,51.69
2019-04-11T01:00:16.555Z,51.78
2019-04-11T01:02:45.452Z,51.70
2019-04-11T01:05:15.048Z,51.76
2019-04-11T01:07:43.623Z,51.76
2019-04-11T01:10:12.098Z,52.01
2019-04-11T01:12:40.803Z,52.01
2019-04-11T01:15:13.333Z,52.07
2019-04-11T01:17:41.738Z,52.23
2019-04-11T01:20:11.234Z,52.16
2019-04-11T01:22:40.500Z,52.10
2019-04-11T01:25:10.362Z,52.20
2019-04-11T01:27:39.953Z,52.07
2019-04-11T01:30:11.774Z,52.29
2019-04-11T01:32:40.324Z,52.33
2019-04-11T01:35:08.936Z,52.39
2019-04-11T01:37:38.176Z,52.68
2019-04-11T01:40:07.795Z,52.58
2019-04-11T01:42:36.177Z,52.55
2019-04-11T01:45:07.463Z,52.81
2019-04-11T01:47:46.929Z,53.00
2019-04-11T01:50:17.098Z,53.07
2019-04-11T01:52:46.599Z,53.10
2019-04-11T01:55:16.386Z,53.26
2019-04-11T01:57:44.788Z,53.21
2019-04-11T02:00:17.722Z,53.26
2019-04-11T02:02:56.986Z,53.39
2019-04-11T02:05:27.278Z,53.33
2019-04-11T02:07:55.625Z,53.38
2019-04-11T02:10:24.449Z,53.15
2019-04-11T02:12:53.262Z,53.28
2019-04-11T02:15:22.453Z,53.44
2019-04-11T02:17:50.972Z,53.36
2019-04-11T02:20:19.385Z,53.21
2019-04-11T02:22:49.428Z,53.29
2019-04-11T02:25:22.685Z,53.15
2019-04-11T02:27:51.118Z,53.53
2019-04-11T02:30:20.959Z,53.57
2019-04-11T02:32:51.277Z,53.26
2019-04-11T02:35:20.482Z,53.41
2019-04-11T02:37:51.897Z,53.49
2019-04-11T02:40:22.176Z,53.40
2019-04-11T02:42:51.863Z,53.73
2019-04-11T02:45:30.767Z,53.90
2019-04-11T02:47:51.719Z,53.85
2019-04-11T02:50:23.826Z,53.85
2019-04-11T02:52:52.041Z,53.73
2019-04-11T02:55:21.750Z,53.66
2019-04-11T02:57:50.851Z,53.63
2019-04-11T03:00:20.573Z,53.66
2019-04-11T03:02:52.090Z,53.92
2019-04-11T03:05:20.864Z,53.88
2019-04-11T03:07:49.955Z,54.31
2019-04-11T03:10:18.873Z,54.21
2019-04-11T03:12:48.803Z,54.09
2019-04-11T03:15:33.944Z,54.20
2019-04-11T03:17:49.370Z,54.28
2019-04-11T03:20:26.556Z,54.58
2019-04-11T03:22:56.538Z,54.56
2019-04-11T03:25:18.408Z,54.50
2019-04-11T03:27:47.456Z,54.45
2019-04-11T03:30:23.503Z,54.68
2019-04-11T03:33:43.507Z,54.62
2019-04-11T03:36:07.843Z,54.85
2019-04-11T03:38:16.607Z,54.69
2019-04-11T03:40:36.219Z,54.80
2019-04-11T03:43:04.292Z,54.86
2019-04-11T03:45:38.580Z,54.82
2019-04-11T03:48:07.505Z,54.72
2019-04-11T03:50:25.353Z,54.92
2019-04-11T03:52:53.748Z,54.99
2019-04-11T03:55:23.389Z,55.20
2019-04-11T03:57:54.304Z,55.31
2019-04-11T04:00:23.930Z,55.51
2019-04-11T04:02:52.665Z,55.55
2019-04-11T04:05:21.749Z,55.58
2019-04-11T04:07:50.456Z,55.62
2019-04-11T04:10:21.184Z,55.92
2019-04-11T04:12:51.480Z,56.13
2019-04-11T04:15:51.569Z,56.03
2019-04-11T04:18:12.239Z,56.03
2019-04-11T04:20:59.677Z,56.03
2019-04-11T04:23:31.358Z,56.04
2019-04-11T04:26:01.105Z,56.23
2019-04-11T04:28:31.742Z,56.21
2019-04-11T04:31:01.656Z,56.13
2019-04-11T04:33:31.415Z,56.30
2019-04-11T04:36:02.439Z,56.37
2019-04-11T04:38:33.766Z,56.29
2019-04-11T04:41:16.896Z,56.53
2019-04-11T04:43:36.503Z,56.23
2019-04-11T04:46:25.101Z,56.65
2019-04-11T04:48:35.284Z,56.67
2019-04-11T04:51:08.439Z,56.63
2019-04-11T04:53:35.180Z,56.55
2019-04-11T04:56:04.141Z,56.69
2019-04-11T04:58:33.941Z,56.65
2019-04-11T05:01:04.269Z,56.73
2019-04-11T05:03:34.205Z,56.67
2019-04-11T05:06:04.023Z,57.00
2019-04-11T05:08:32.713Z,57.22
2019-04-11T05:11:02.178Z,57.21
2019-04-11T05:13:32.213Z,57.07
2019-04-11T05:16:09.608Z,57.62
2019-04-11T05:18:32.009Z,57.14
2019-04-11T05:21:01.097Z,56.94
2019-04-11T05:23:29.829Z,56.91
2019-04-11T05:25:59.973Z,57.14
2019-04-11T05:28:29.725Z,57.21
2019-04-11T05:30:58.405Z,57.11
2019-04-11T05:33:27.365Z,56.92
2019-04-11T05:35:56.847Z,56.63
2019-04-11T05:38:25.388Z,56.45
2019-04-11T05:40:54.582Z,57.10
2019-04-11T05:43:28.072Z,56.97
2019-04-11T05:45:55.110Z,57.11
2019-04-11T05:48:30.723Z,56.89
2019-04-11T05:51:00.421Z,57.07
2019-04-11T05:53:32.607Z,57.11
2019-04-11T05:56:07.070Z,57.11
2019-04-11T05:58:44.356Z,57.30
2019-04-11T06:01:20.397Z,57.12
2019-04-11T06:03:50.438Z,57.52
2019-04-11T06:06:40.068Z,57.15
2019-04-11T06:09:11.709Z,57.30
2019-04-11T06:11:52.196Z,57.15
2019-04-11T06:14:25.025Z,57.28
2019-04-11T06:16:56.200Z,57.42
2019-04-11T06:19:41.819Z,57.33
2019-04-11T06:22:10.856Z,57.05
2019-04-11T06:24:44.661Z,57.18
2019-04-11T06:27:15.366Z,57.20
2019-04-11T06:29:45.924Z,56.77
2019-04-11T06:32:15.983Z,56.77
2019-04-11T06:35:02.294Z,56.84
2019-04-11T06:37:48.175Z,56.84
2019-04-11T06:40:18.212Z,56.96
2019-04-11T06:43:03.658Z,56.78
2019-04-11T06:45:46.137Z,56.78
2019-04-11T06:48:31.764Z,56.76
2019-04-11T06:51:01.913Z,56.60
2019-04-11T06:53:32.195Z,56.41
2019-04-11T06:56:03.472Z,56.41
2019-04-11T06:58:33.625Z,56.88
2019-04-11T07:01:03.663Z,56.61
2019-04-11T07:03:36.706Z,56.30
2019-04-11T07:06:07.038Z,56.28
2019-04-11T07:08:40.591Z,56.41
2019-04-11T07:11:16.348Z,56.36
2019-04-11T07:13:47.608Z,56.01
2019-04-11T07:16:18.424Z,55.63
2019-04-11T07:18:51.059Z,55.50
2019-04-11T07:21:21.289Z,55.16
2019-04-11T07:24:07.743Z,55.30
2019-04-11T07:26:41.501Z,55.31
2019-04-11T07:29:29.974Z,55.12
2019-04-11T07:32:05.728Z,54.98
2019-04-11T07:34:40.305Z,55.10
2019-04-11T07:37:28.104Z,55.18
2019-04-11T07:40:15.551Z,54.95
2019-04-11T07:42:46.846Z,55.15
2019-04-11T07:45:34.383Z,55.34
2019-04-11T07:48:10.958Z,55.13
2019-04-11T07:50:39.913Z,54.99
2019-04-11T07:53:12.818Z,54.82
2019-04-11T07:55:42.369Z,54.59
2019-04-11T07:58:26.039Z,54.96
2019-04-11T08:01:06.939Z,54.92
2019-04-11T08:03:55.711Z,54.71
2019-04-11T08:06:31.042Z,54.78
2019-04-11T08:09:18.772Z,54.81
2019-04-11T08:11:49.838Z,54.81
2019-04-11T08:14:32.833Z,54.58
2019-04-11T08:17:07.696Z,54.65
2019-04-11T08:19:57.477Z,54.41
2019-04-11T08:22:41.908Z,54.45
2019-04-11T08:25:13.284Z,54.44
2019-04-11T08:27:54.074Z,54.47
2019-04-11T08:30:15.026Z,54.40
2019-04-11T08:32:47.493Z,54.09
2019-04-11T08:35:20.530Z,54.04
2019-04-11T08:38:07.889Z,53.93
2019-04-11T08:40:47.226Z,53.89
2019-04-11T08:43:35.267Z,53.55
2019-04-11T08:46:06.709Z,53.50
2019-04-11T08:48:44.040Z,53.46
2019-04-11T08:51:19.157Z,53.56
2019-04-11T08:54:07.024Z,53.18
2019-04-11T08:56:39.093Z,53.10
2019-04-11T08:59:29.382Z,52.96
2019-04-11T09:01:58.560Z,53.06
2019-04-11T09:04:48.725Z,52.77
2019-04-11T09:07:23.954Z,52.88
2019-04-11T09:10:11.520Z,52.70
2019-04-11T09:12:42.705Z,52.71
2019-04-11T09:15:29.692Z,52.11
2019-04-11T09:18:04.730Z,51.47
2019-04-11T09:20:50.035Z,51.21
2019-04-11T09:23:21.829Z,51.37
2019-04-11T09:26:01.624Z,51.03
2019-04-11T09:28:35.631Z,50.73
2019-04-11T09:31:12.196Z,50.50
2019-04-11T09:33:58.056Z,50.59
2019-04-11T09:36:40.974Z,50.46
2019-04-11T09:39:23.953Z,49.83
2019-04-11T09:42:14.244Z,49.48
2019-04-11T09:44:49.506Z,49.48
2019-04-11T09:47:40.351Z,49.73
2019-04-11T09:50:11.933Z,49.66
2019-04-11T09:52:45.970Z,49.46
2019-04-11T09:55:25.514Z,49.37
2019-04-11T09:58:01.340Z,49.22
2019-04-11T10:00:51.168Z,49.11
2019-04-11T10:03:25.485Z,49.22
2019-04-11T10:06:00.026Z,48.61
2019-04-11T10:08:31.035Z,49.00
2019-04-11T10:11:10.240Z,48.57
2019-04-11T10:13:45.860Z,48.31
2019-04-11T10:16:28.377Z,48.33
2019-04-11T10:19:01.468Z,48.44
2019-04-11T10:21:33.167Z,48.35
2019-04-11T10:24:22.466Z,48.46
2019-04-11T10:27:12.182Z,48.28
2019-04-11T10:29:59.046Z,48.36
2019-04-11T10:32:39.300Z,48.32
2019-04-11T10:35:19.892Z,47.69
2019-04-11T10:37:50.787Z,47.77
2019-04-11T10:40:37.189Z,47.42
2019-04-11T10:43:07.719Z,47.44
2019-04-11T10:45:55.370Z,47.46
2019-04-11T10:48:36.526Z,47.16
2019-04-11T10:51:13.043Z,47.91
2019-04-11T10:53:43.684Z,48.08
2019-04-11T10:56:13.980Z,47.91
2019-04-11T10:58:46.831Z,47.85
2019-04-11T11:01:33.828Z,47.41
2019-04-11T11:04:10.095Z,47.51
2019-04-11T11:06:39.983Z,46.93
2019-04-11T11:09:10.196Z,46.19
2019-04-11T11:11:46.403Z,46.53
2019-04-11T11:14:36.490Z,46.29
2019-04-11T11:17:44.236Z,46.25
2019-04-11T11:20:12.043Z,46.58
2019-04-11T11:22:51.758Z,46.21
2019-04-11T11:25:24.650Z,46.39
2019-04-11T11:27:57.920Z,46.39
2019-04-11T11:30:39.821Z,46.01
2019-04-11T11:33:09.968Z,46.32
2019-04-11T11:35:50.023Z,46.16
2019-04-11T11:38:20.122Z,46.24
2019-04-11T11:41:07.978Z,46.17
2019-04-11T11:43:41.446Z,46.35
2019-04-11T11:46:26.776Z,45.92
2019-04-11T11:48:59.222Z,45.87
2019-04-11T11:51:37.595Z,45.80
2019-04-11T11:54:11.958Z,45.64
2019-04-11T11:56:44.433Z,45.95
2019-04-11T11:59:16.960Z,46.20
2019-04-11T12:01:54.172Z,46.04
2019-04-11T12:04:40.613Z,45.92
2019-04-11T12:07:10.721Z,46.02
2019-04-11T12:09:55.844Z,46.04
2019-04-11T12:12:35.877Z,45.70
2019-04-11T12:15:25.790Z,45.79
2019-04-11T12:18:01.833Z,45.22
2019-04-11T12:20:34.766Z,45.16
2019-04-11T12:23:08.763Z,45.46
2019-04-11T12:25:39.056Z,45.20
2019-04-11T12:28:21.544Z,44.87
2019-04-11T12:30:57.886Z,44.92
2019-04-11T12:33:28.199Z,44.74
2019-04-11T12:36:07.103Z,44.44
2019-04-11T12:38:38.241Z,44.64
2019-04-11T12:41:10.584Z,44.52
2019-04-11T12:43:40.761Z,44.54
2019-04-11T12:46:19.370Z,44.72
2019-04-11T12:48:50.668Z,44.75
2019-04-11T12:51:37.105Z,44.34
2019-04-11T12:54:05.798Z,44.25
2019-04-11T12:56:53.360Z,44.32
2019-04-11T12:59:21.936Z,43.95
2019-04-11T13:02:07.156Z,44.16
2019-04-11T13:04:35.593Z,44.18
2019-04-11T13:07:11.483Z,44.25
2019-04-11T13:09:43.825Z,44.09
2019-04-11T13:12:30.668Z,44.53
2019-04-11T13:15:03.635Z,44.00
2019-04-11T13:17:39.549Z,43.89
2019-04-11T13:20:15.282Z,43.69
2019-04-11T13:22:47.634Z,43.60
2019-04-11T13:25:17.766Z,43.75
2019-04-11T13:27:49.597Z,43.66
2019-04-11T13:30:39.764Z,43.60
2019-04-11T13:33:12.252Z,43.20
2019-04-11T13:36:02.884Z,43.35
2019-04-11T13:38:39.213Z,43.52
2019-04-11T13:41:31.753Z,43.29
2019-04-11T13:44:01.234Z,43.16
2019-04-11T13:46:34.257Z,42.88
2019-04-11T13:49:17.259Z,42.54
2019-04-11T13:51:47.523Z,42.97
2019-04-11T13:54:35.700Z,42.33
2019-04-11T13:57:12.107Z,42.56
2019-04-11T13:59:58.515Z,42.24
2019-04-11T14:02:31.406Z,41.96
2019-04-11T14:05:04.147Z,42.28
2019-04-11T14:07:34.397Z,42.31
2019-04-11T14:10:07.627Z,42.50
2019-04-11T14:12:39.593Z,42.18
2019-04-11T14:15:13.212Z,42.10
2019-04-11T14:18:01.534Z,42.24
2019-04-11T14:20:34.727Z,42.38
2019-04-11T14:23:05.082Z,42.50
2019-04-11T14:25:55.046Z,42.18
2019-04-11T14:28:27.835Z,41.93
2019-04-11T14:31:03.133Z,41.94
2019-04-11T14:33:37.506Z,41.82
2019-04-11T14:36:33.224Z,41.31
2019-04-11T14:38:58.744Z,41.36
2019-04-11T14:41:41.531Z,41.19
2019-04-11T14:44:07.981Z,41.25
2019-04-11T14:46:57.976Z,41.11
2019-04-11T14:49:27.181Z,40.92
2019-04-11T14:52:03.220Z,40.75
2019-04-11T14:54:40.327Z,41.06
2019-04-11T14:57:23.400Z,41.25
2019-04-11T14:59:57.185Z,41.23
2019-04-11T15:02:28.910Z,41.31
2019-04-11T15:05:06.165Z,41.29
2019-04-11T15:07:39.497Z,41.38
2019-04-11T15:10:14.672Z,41.46
2019-04-11T15:12:54.921Z,41.38
2019-04-11T15:15:33.707Z,41.26
2019-04-11T15:18:03.869Z,41.30
2019-04-11T15:20:55.219Z,40.87
2019-04-11T15:23:24.901Z,40.79
2019-04-11T15:26:07.882Z,40.81
2019-04-11T15:28:35.440Z,40.61
2019-04-11T15:31:23.507Z,40.69
2019-04-11T15:34:02.376Z,40.50
2019-04-11T15:36:31.341Z,40.77
2019-04-11T15:39:13.312Z,40.84
2019-04-11T15:41:43.345Z,40.79
2019-04-11T15:44:13.923Z,41.12
2019-04-11T15:46:43.273Z,40.95
2019-04-11T15:49:21.250Z,40.82
2019-04-11T15:51:48.104Z,40.63
2019-04-11T15:54:18.126Z,40.72
2019-04-11T15:57:00.082Z,40.94
2019-04-11T15:59:38.591Z,41.04
2019-04-11T16:02:08.965Z,41.37
2019-04-11T16:04:47.503Z,41.14
2019-04-11T16:07:37.376Z,41.20
2019-04-11T16:10:11.724Z,40.91
2019-04-11T16:12:55.811Z,41.12
2019-04-11T16:15:38.315Z,40.81
2019-04-11T16:18:24.743Z,41.03
2019-04-11T16:20:57.483Z,40.79
2019-04-11T16:23:27.486Z,41.12
2019-04-11T16:25:55.873Z,41.12
2019-04-11T16:28:28.556Z,40.70
2019-04-11T16:30:58.222Z,40.52
2019-04-11T16:33:46.280Z,40.94
2019-04-11T16:36:16.620Z,40.99
2019-04-11T16:38:46.902Z,41.04
2019-04-11T16:41:34.472Z,41.10
2019-04-11T16:44:04.502Z,41.14
2019-04-11T16:46:46.654Z,41.04
2019-04-11T16:49:15.050Z,41.26
2019-04-11T16:51:43.448Z,41.45
2019-04-11T16:54:11.837Z,41.48
2019-04-11T16:56:41.746Z,41.28
2019-04-11T16:59:10.432Z,41.19
2019-04-11T17:01:38.818Z,41.02
2019-04-11T17:04:07.286Z,40.91
2019-04-11T17:06:45.874Z,41.11
2019-04-11T17:09:15.886Z,41.08
2019-04-11T17:11:44.277Z,41.17
2019-04-11T17:14:12.672Z,41.26
2019-04-11T17:16:41.101Z,41.19
2019-04-11T17:19:11.694Z,41.16
2019-04-11T17:21:43.384Z,41.32
2019-04-11T17:24:09.730Z,41.43
2019-04-11T17:26:38.186Z,41.40
2019-04-11T17:29:06.704Z,41.53
2019-04-11T17:31:35.072Z,41.35
2019-04-11T17:34:05.624Z,41.65
2019-04-11T17:36:33.814Z,41.88
2019-04-11T17:39:02.332Z,41.79
2019-04-11T17:41:30.717Z,41.72
2019-04-11T17:43:59.107Z,41.78
2019-04-11T17:46:27.594Z,41.69
2019-04-11T17:48:55.961Z,41.81
2019-04-11T17:51:25.297Z,41.85
2019-04-11T17:53:55.491Z,42.00
2019-04-11T17:56:25.338Z,42.24
2019-04-11T17:58:57.707Z,42.31
2019-04-11T18:01:24.097Z,42.51
2019-04-11T18:03:52.507Z,42.50
2019-04-11T18:06:21.104Z,42.59
2019-04-11T18:08:51.606Z,42.58
2019-04-11T18:11:19.595Z,42.65
2019-04-11T18:13:47.986Z,42.89
2019-04-11T18:16:16.370Z,42.68
2019-04-11T18:18:45.762Z,42.76
2019-04-11T18:21:14.147Z,42.73
2019-04-11T18:23:42.549Z,42.91
2019-04-11T18:26:10.945Z,42.84
2019-04-11T18:28:39.342Z,43.06
2019-04-11T18:31:07.724Z,42.98
2019-04-11T18:33:36.187Z,43.20
2019-04-11T18:36:06.017Z,43.28
2019-04-11T18:38:34.412Z,43.32
2019-04-11T18:41:02.796Z,43.36
2019-04-11T18:43:31.192Z,43.04
2019-04-11T18:45:59.947Z,43.35
2019-04-11T18:48:28.346Z,43.36
2019-04-11T18:50:57.987Z,43.54
2019-04-11T18:53:26.386Z,43.57
2019-04-11T18:55:54.778Z,43.86
2019-04-11T18:58:23.164Z,43.78
2019-04-11T19:00:51.560Z,43.65
2019-04-11T19:03:19.954Z,43.81
2019-04-11T19:05:48.350Z,44.30
2019-04-11T19:08:16.771Z,44.08
2019-04-11T19:10:45.993Z,43.99
2019-04-11T19:13:16.845Z,44.23
2019-04-11T19:15:45.825Z,44.15
2019-04-11T19:18:16.574Z,44.24
2019-04-11T19:20:44.890Z,44.16
2019-04-11T19:23:13.280Z,44.31
2019-04-11T19:25:44.455Z,44.50
2019-04-11T19:28:11.781Z,44.58
2019-04-11T19:30:42.334Z,44.64
2019-04-11T19:33:10.304Z,44.48
2019-04-11T19:35:41.347Z,44.63
2019-04-11T19:38:12.233Z,44.60
2019-04-11T19:40:40.569Z,44.72
2019-04-11T19:43:08.948Z,44.93
2019-04-11T19:45:37.336Z,44.84
2019-04-11T19:48:05.725Z,44.89
2019-04-11T19:50:34.115Z,45.41
2019-04-11T19:53:02.976Z,44.88
2019-04-11T19:55:36.146Z,44.86
2019-04-11T19:58:04.586Z,44.99
2019-04-11T20:00:33.442Z,44.98
2019-04-11T20:03:01.827Z,45.01
2019-04-11T20:05:30.211Z,45.04
2019-04-11T20:07:58.599Z,45.01
2019-04-11T20:10:30.557Z,45.09
2019-04-11T20:12:59.101Z,45.10
2019-04-11T20:15:36.681Z,45.08
2019-04-11T20:17:57.330Z,45.12
2019-04-11T20:20:25.728Z,45.20
2019-04-11T20:22:59.269Z,45.21
2019-04-11T20:25:24.216Z,45.34
2019-04-11T20:27:52.653Z,45.50
2019-04-11T20:30:22.938Z,45.72
2019-04-11T20:32:51.181Z,45.92
2019-04-11T20:35:28.472Z,45.96
2019-04-11T20:37:49.705Z,46.04
2019-04-11T20:40:22.083Z,45.64
2019-04-11T20:42:48.200Z,45.66
2019-04-11T20:45:16.583Z,45.59
2019-04-11T20:47:44.978Z,45.57
2019-04-11T20:50:14.926Z,45.60
2019-04-11T20:52:43.307Z,45.76
2019-04-11T20:55:11.772Z,45.79
2019-04-11T20:57:41.039Z,45.78
2019-04-11T21:00:12.428Z,45.80
2019-04-11T21:02:40.204Z,45.82
2019-04-11T21:05:08.591Z,46.03
2019-04-11T21:07:39.073Z,45.63
2019-04-11T21:10:07.927Z,46.08
2019-04-11T21:12:37.235Z,46.53
2019-04-11T21:15:08.287Z,46.07
2019-04-11T21:17:37.598Z,45.34
2019-04-11T21:20:07.246Z,45.83
2019-04-11T21:22:35.635Z,46.10
2019-04-11T21:25:05.058Z,46.36
2019-04-11T21:27:33.452Z,46.64
2019-04-11T21:30:02.112Z,46.39
2019-04-11T21:32:31.808Z,45.94
2019-04-11T21:35:02.334Z,46.22
2019-04-11T21:37:30.734Z,46.57
2019-04-11T21:39:59.119Z,46.37
2019-04-11T21:42:27.602Z,46.41
2019-04-11T21:44:56.035Z,46.26
2019-04-11T21:47:24.343Z,46.44
2019-04-11T21:49:52.725Z,46.30
2019-04-11T21:52:21.110Z,46.43
2019-04-11T21:54:49.490Z,46.63
2019-04-11T21:57:18.393Z,46.95
2019-04-11T21:59:51.182Z,46.74
2019-04-11T22:02:18.467Z,46.89
2019-04-11T22:04:46.866Z,46.70
2019-04-11T22:07:15.360Z,47.06
2019-04-11T22:09:43.744Z,46.96
2019-04-11T22:12:12.122Z,47.28
2019-04-11T22:14:41.934Z,47.55
2019-04-11T22:17:15.063Z,47.48
2019-04-11T22:19:45.274Z,47.50
2019-04-11T22:22:10.906Z,47.79
2019-04-11T22:24:39.297Z,47.91
2019-04-11T22:27:07.680Z,48.16
2019-04-11T22:29:36.067Z,48.12
2019-04-11T22:32:04.526Z,48.08
2019-04-11T22:34:34.544Z,48.41
2019-04-11T22:37:02.929Z,48.48
2019-04-11T22:39:32.075Z,48.74
2019-04-11T22:42:00.533Z,48.79
2019-04-11T22:44:28.920Z,48.77
2019-04-11T22:46:57.300Z,48.71
2019-04-11T22:49:25.682Z,48.83
2019-04-11T22:51:54.146Z,48.95
2019-04-11T22:54:28.295Z,48.96
2019-04-11T22:56:56.667Z,48.87
2019-04-11T22:59:25.051Z,49.15
2019-04-11T23:01:55.010Z,49.15
2019-04-11T23:04:23.397Z,49.27
2019-04-11T23:06:51.783Z,49.14
2019-04-11T23:09:20.182Z,49.29
2019-04-11T23:11:48.561Z,49.14
2019-04-11T23:14:16.964Z,49.28
2019-04-11T23:16:45.344Z,49.21
2019-04-11T23:19:14.462Z,49.25
2019-04-11T23:21:42.898Z,49.36
2019-04-11T23:24:11.995Z,49.46
2019-04-11T23:26:40.775Z,49.42
2019-04-11T23:29:09.174Z,49.40
2019-04-11T23:31:37.626Z,49.60
2019-04-11T23:34:06.005Z,49.61
2019-04-11T23:36:34.386Z,49.88
2019-04-11T23:39:02.769Z,49.77
2019-04-11T23:41:31.149Z,49.76
2019-04-11T23:43:59.529Z,50.18
2019-04-11T23:46:27.913Z,50.13
2019-04-11T23:48:56.383Z,50.22
2019-04-11T23:51:26.261Z,50.30
2019-04-11T23:53:58.996Z,50.49
2019-04-11T23:56:25.020Z,50.54
2019-04-11T23:58:53.489Z,50.53
